sensor_id;sensor_type;location;lat;lon;timestamp;P1;durP1;ratioP1;P2;durP2;ratioP2
40717;SDS011;26405;51.850;-2.246;2022-12-10T00:00:13;19.30;;;6.85;;
40717;SDS011;26405;51.850;-2.246;2022-12-10T00:02:39;17.80;;;6.55;;
40717;SDS011;26405;51.850;-2.246;2022-12-10T00:05:04;20.00;;;6.82;;
40717;SDS011;26405;51.850;-2.246;2022-12-10T00:07:30;18.75;;;6.15;;
40717;SDS011;26405;51.850;-2.246;2022-12-10T00:09:55;18.60;;;6.20;;
40717;SDS011;26405;51.850;-2.246;2022-12-10T00:12:20;17.27;;;6.68;;
40717;SDS011;26405;51.850;-2.246;2022-12-10T00:14:45;14.95;;;5.57;;
40717;SDS011;26405;51.850;-2.246;2022-12-10T00:17:11;15.73;;;5.97;;
40717;SDS011;26405;51.850;-2.246;2022-12-10T00:19:36;17.50;;;5.75;;
40717;SDS011;26405;51.850;-2.246;2022-12-10T00:22:01;18.63;;;6.22;;
40717;SDS011;26405;51.850;-2.246;2022-12-10T00:24:26;18.30;;;6.43;;
40717;SDS011;26405;51.850;-2.246;2022-12-10T00:26:52;18.55;;;5.68;;
40717;SDS011;26405;51.850;-2.246;2022-12-10T00:29:17;16.83;;;5.72;;
40717;SDS011;26405;51.850;-2.246;2022-12-10T00:31:42;16.77;;;6.38;;
40717;SDS011;26405;51.850;-2.246;2022-12-10T00:34:08;17.90;;;6.53;;
40717;SDS011;26405;51.850;-2.246;2022-12-10T00:36:35;17.58;;;6.40;;
40717;SDS011;26405;51.850;-2.246;2022-12-10T00:41:26;20.05;;;5.95;;
40717;SDS011;26405;51.850;-2.246;2022-12-10T00:43:52;18.15;;;6.20;;
40717;SDS011;26405;51.850;-2.246;2022-12-10T00:46:17;17.38;;;5.93;;
40717;SDS011;26405;51.850;-2.246;2022-12-10T00:48:43;15.98;;;5.97;;
40717;SDS011;26405;51.850;-2.246;2022-12-10T00:51:13;16.10;;;5.82;;
40717;SDS011;26405;51.850;-2.246;2022-12-10T00:53:39;14.07;;;5.18;;
40717;SDS011;26405;51.850;-2.246;2022-12-10T00:56:05;16.98;;;5.95;;
40717;SDS011;26405;51.850;-2.246;2022-12-10T00:58:32;15.80;;;5.40;;
40717;SDS011;26405;51.850;-2.246;2022-12-10T01:01:10;18.15;;;6.22;;
40717;SDS011;26405;51.850;-2.246;2022-12-10T01:03:36;17.05;;;5.53;;
40717;SDS011;26405;51.850;-2.246;2022-12-10T01:06:09;13.80;;;5.78;;
40717;SDS011;26405;51.850;-2.246;2022-12-10T01:08:34;16.98;;;5.35;;
40717;SDS011;26405;51.850;-2.246;2022-12-10T01:11:00;13.18;;;5.07;;
40717;SDS011;26405;51.850;-2.246;2022-12-10T01:13:25;13.00;;;4.90;;
40717;SDS011;26405;51.850;-2.246;2022-12-10T01:15:50;13.20;;;4.82;;
40717;SDS011;26405;51.850;-2.246;2022-12-10T01:18:15;13.70;;;4.85;;
40717;SDS011;26405;51.850;-2.246;2022-12-10T01:20:41;15.40;;;5.32;;
40717;SDS011;26405;51.850;-2.246;2022-12-10T01:23:06;11.93;;;4.63;;
40717;SDS011;26405;51.850;-2.246;2022-12-10T01:25:31;14.45;;;5.00;;
40717;SDS011;26405;51.850;-2.246;2022-12-10T01:27:56;13.98;;;5.10;;
40717;SDS011;26405;51.850;-2.246;2022-12-10T01:30:22;16.10;;;5.13;;
40717;SDS011;26405;51.850;-2.246;2022-12-10T01:32:47;13.55;;;4.88;;
40717;SDS011;26405;51.850;-2.246;2022-12-10T01:35:12;15.85;;;5.40;;
40717;SDS011;26405;51.850;-2.246;2022-12-10T01:37:37;12.15;;;4.53;;
40717;SDS011;26405;51.850;-2.246;2022-12-10T01:40:03;16.10;;;5.22;;
40717;SDS011;26405;51.850;-2.246;2022-12-10T01:42:28;11.68;;;4.40;;
40717;SDS011;26405;51.850;-2.246;2022-12-10T01:44:56;12.35;;;4.53;;
40717;SDS011;26405;51.850;-2.246;2022-12-10T01:47:21;14.48;;;4.43;;
40717;SDS011;26405;51.850;-2.246;2022-12-10T01:49:47;11.68;;;4.60;;
40717;SDS011;26405;51.850;-2.246;2022-12-10T01:52:12;12.25;;;4.50;;
40717;SDS011;26405;51.850;-2.246;2022-12-10T01:54:39;14.95;;;4.45;;
40717;SDS011;26405;51.850;-2.246;2022-12-10T01:59:30;9.80;;;3.90;;
40717;SDS011;26405;51.850;-2.246;2022-12-10T02:02:01;15.73;;;4.63;;
40717;SDS011;26405;51.850;-2.246;2022-12-10T02:07:13;14.68;;;4.25;;
40717;SDS011;26405;51.850;-2.246;2022-12-10T02:09:50;12.98;;;4.55;;
40717;SDS011;26405;51.850;-2.246;2022-12-10T02:12:22;13.95;;;4.15;;
40717;SDS011;26405;51.850;-2.246;2022-12-10T02:17:32;12.52;;;4.78;;
40717;SDS011;26405;51.850;-2.246;2022-12-10T02:20:04;10.95;;;3.95;;
40717;SDS011;26405;51.850;-2.246;2022-12-10T02:22:34;12.23;;;4.45;;
40717;SDS011;26405;51.850;-2.246;2022-12-10T02:25:01;16.27;;;4.20;;
40717;SDS011;26405;51.850;-2.246;2022-12-10T02:27:32;10.07;;;3.72;;
40717;SDS011;26405;51.850;-2.246;2022-12-10T02:29:59;12.38;;;3.92;;
40717;SDS011;26405;51.850;-2.246;2022-12-10T02:32:26;10.85;;;4.28;;
40717;SDS011;26405;51.850;-2.246;2022-12-10T02:34:55;9.50;;;3.60;;
40717;SDS011;26405;51.850;-2.246;2022-12-10T02:37:32;9.38;;;3.88;;
40717;SDS011;26405;51.850;-2.246;2022-12-10T02:39:59;8.73;;;3.47;;
40717;SDS011;26405;51.850;-2.246;2022-12-10T02:42:26;11.00;;;3.83;;
40717;SDS011;26405;51.850;-2.246;2022-12-10T02:44:54;8.68;;;3.80;;
40717;SDS011;26405;51.850;-2.246;2022-12-10T02:47:21;12.80;;;3.92;;
40717;SDS011;26405;51.850;-2.246;2022-12-10T02:49:47;10.63;;;3.85;;
40717;SDS011;26405;51.850;-2.246;2022-12-10T02:52:13;8.13;;;3.20;;
40717;SDS011;26405;51.850;-2.246;2022-12-10T02:54:43;9.48;;;4.05;;
40717;SDS011;26405;51.850;-2.246;2022-12-10T03:02:24;13.07;;;3.97;;
40717;SDS011;26405;51.850;-2.246;2022-12-10T03:04:53;9.38;;;3.90;;
40717;SDS011;26405;51.850;-2.246;2022-12-10T03:07:34;10.63;;;3.72;;
40717;SDS011;26405;51.850;-2.246;2022-12-10T03:10:06;9.63;;;3.38;;
40717;SDS011;26405;51.850;-2.246;2022-12-10T03:12:45;10.70;;;3.92;;
40717;SDS011;26405;51.850;-2.246;2022-12-10T03:15:12;10.55;;;3.60;;
40717;SDS011;26405;51.850;-2.246;2022-12-10T03:17:39;12.30;;;3.80;;
40717;SDS011;26405;51.850;-2.246;2022-12-10T03:20:07;10.05;;;3.63;;
40717;SDS011;26405;51.850;-2.246;2022-12-10T03:22:36;10.48;;;3.50;;
40717;SDS011;26405;51.850;-2.246;2022-12-10T03:25:02;9.40;;;3.78;;
40717;SDS011;26405;51.850;-2.246;2022-12-10T03:27:27;10.45;;;3.70;;
40717;SDS011;26405;51.850;-2.246;2022-12-10T03:29:54;10.93;;;3.60;;
40717;SDS011;26405;51.850;-2.246;2022-12-10T03:32:24;12.75;;;4.18;;
40717;SDS011;26405;51.850;-2.246;2022-12-10T03:34:50;13.02;;;3.83;;
40717;SDS011;26405;51.850;-2.246;2022-12-10T03:37:16;11.07;;;3.67;;
40717;SDS011;26405;51.850;-2.246;2022-12-10T03:39:42;11.60;;;3.55;;
40717;SDS011;26405;51.850;-2.246;2022-12-10T03:42:07;8.43;;;3.50;;
40717;SDS011;26405;51.850;-2.246;2022-12-10T03:44:34;8.15;;;3.60;;
40717;SDS011;26405;51.850;-2.246;2022-12-10T03:46:59;11.43;;;3.80;;
40717;SDS011;26405;51.850;-2.246;2022-12-10T03:49:25;9.82;;;3.95;;
40717;SDS011;26405;51.850;-2.246;2022-12-10T03:51:50;11.38;;;3.70;;
40717;SDS011;26405;51.850;-2.246;2022-12-10T03:54:15;11.23;;;3.72;;
40717;SDS011;26405;51.850;-2.246;2022-12-10T03:56:41;10.75;;;3.60;;
40717;SDS011;26405;51.850;-2.246;2022-12-10T03:59:06;11.57;;;3.97;;
40717;SDS011;26405;51.850;-2.246;2022-12-10T04:01:31;10.63;;;4.05;;
40717;SDS011;26405;51.850;-2.246;2022-12-10T04:03:57;9.77;;;3.58;;
40717;SDS011;26405;51.850;-2.246;2022-12-10T04:06:22;12.70;;;4.05;;
40717;SDS011;26405;51.850;-2.246;2022-12-10T04:08:47;9.95;;;3.40;;
40717;SDS011;26405;51.850;-2.246;2022-12-10T04:11:13;7.47;;;3.67;;
40717;SDS011;26405;51.850;-2.246;2022-12-10T04:13:39;11.60;;;4.00;;
40717;SDS011;26405;51.850;-2.246;2022-12-10T04:16:23;9.75;;;4.10;;
40717;SDS011;26405;51.850;-2.246;2022-12-10T04:18:52;11.82;;;3.70;;
40717;SDS011;26405;51.850;-2.246;2022-12-10T04:21:17;12.02;;;4.40;;
40717;SDS011;26405;51.850;-2.246;2022-12-10T04:24:01;9.95;;;3.72;;
40717;SDS011;26405;51.850;-2.246;2022-12-10T04:26:45;11.45;;;3.85;;
40717;SDS011;26405;51.850;-2.246;2022-12-10T04:29:24;12.15;;;4.15;;
40717;SDS011;26405;51.850;-2.246;2022-12-10T04:31:49;8.75;;;3.97;;
40717;SDS011;26405;51.850;-2.246;2022-12-10T04:34:15;9.57;;;3.75;;
40717;SDS011;26405;51.850;-2.246;2022-12-10T04:36:40;10.13;;;3.65;;
40717;SDS011;26405;51.850;-2.246;2022-12-10T04:39:05;11.90;;;3.97;;
40717;SDS011;26405;51.850;-2.246;2022-12-10T04:41:31;9.98;;;3.67;;
40717;SDS011;26405;51.850;-2.246;2022-12-10T04:43:56;11.88;;;3.65;;
40717;SDS011;26405;51.850;-2.246;2022-12-10T04:46:21;7.32;;;3.03;;
40717;SDS011;26405;51.850;-2.246;2022-12-10T04:48:46;9.15;;;3.63;;
40717;SDS011;26405;51.850;-2.246;2022-12-10T04:51:12;8.23;;;3.50;;
40717;SDS011;26405;51.850;-2.246;2022-12-10T04:53:37;10.57;;;3.40;;
40717;SDS011;26405;51.850;-2.246;2022-12-10T04:56:02;9.68;;;3.58;;
40717;SDS011;26405;51.850;-2.246;2022-12-10T04:58:30;13.05;;;3.53;;
40717;SDS011;26405;51.850;-2.246;2022-12-10T05:01:05;8.45;;;3.30;;
40717;SDS011;26405;51.850;-2.246;2022-12-10T05:03:31;9.77;;;3.20;;
40717;SDS011;26405;51.850;-2.246;2022-12-10T05:06:03;11.00;;;3.30;;
40717;SDS011;26405;51.850;-2.246;2022-12-10T05:08:29;6.45;;;3.10;;
40717;SDS011;26405;51.850;-2.246;2022-12-10T05:10:54;6.53;;;2.97;;
40717;SDS011;26405;51.850;-2.246;2022-12-10T05:13:20;6.78;;;3.20;;
40717;SDS011;26405;51.850;-2.246;2022-12-10T05:15:45;10.63;;;3.60;;
40717;SDS011;26405;51.850;-2.246;2022-12-10T05:18:10;8.07;;;3.13;;
40717;SDS011;26405;51.850;-2.246;2022-12-10T05:20:35;8.32;;;3.25;;
40717;SDS011;26405;51.850;-2.246;2022-12-10T05:23:00;12.48;;;3.67;;
40717;SDS011;26405;51.850;-2.246;2022-12-10T05:25:44;8.60;;;3.15;;
40717;SDS011;26405;51.850;-2.246;2022-12-10T05:28:21;7.88;;;3.40;;
40717;SDS011;26405;51.850;-2.246;2022-12-10T05:30:47;8.95;;;3.50;;
40717;SDS011;26405;51.850;-2.246;2022-12-10T05:33:12;8.48;;;3.45;;
40717;SDS011;26405;51.850;-2.246;2022-12-10T05:35:38;7.55;;;3.20;;
40717;SDS011;26405;51.850;-2.246;2022-12-10T05:38:03;10.90;;;3.78;;
40717;SDS011;26405;51.850;-2.246;2022-12-10T05:40:30;9.67;;;3.60;;
40717;SDS011;26405;51.850;-2.246;2022-12-10T05:42:55;10.75;;;3.20;;
40717;SDS011;26405;51.850;-2.246;2022-12-10T05:45:21;11.20;;;3.78;;
40717;SDS011;26405;51.850;-2.246;2022-12-10T05:47:46;12.43;;;4.05;;
40717;SDS011;26405;51.850;-2.246;2022-12-10T05:50:11;9.40;;;3.80;;
40717;SDS011;26405;51.850;-2.246;2022-12-10T05:52:37;8.25;;;3.75;;
40717;SDS011;26405;51.850;-2.246;2022-12-10T05:55:02;10.65;;;4.20;;
40717;SDS011;26405;51.850;-2.246;2022-12-10T05:57:28;12.50;;;4.40;;
40717;SDS011;26405;51.850;-2.246;2022-12-10T05:59:53;12.02;;;4.55;;
40717;SDS011;26405;51.850;-2.246;2022-12-10T06:02:18;10.18;;;4.00;;
40717;SDS011;26405;51.850;-2.246;2022-12-10T06:04:43;13.32;;;5.20;;
40717;SDS011;26405;51.850;-2.246;2022-12-10T06:07:09;16.08;;;4.90;;
40717;SDS011;26405;51.850;-2.246;2022-12-10T06:09:34;12.30;;;4.60;;
40717;SDS011;26405;51.850;-2.246;2022-12-10T06:11:59;12.10;;;4.80;;
40717;SDS011;26405;51.850;-2.246;2022-12-10T06:14:24;12.13;;;5.03;;
40717;SDS011;26405;51.850;-2.246;2022-12-10T06:16:50;13.02;;;5.20;;
40717;SDS011;26405;51.850;-2.246;2022-12-10T06:19:15;12.70;;;5.07;;
40717;SDS011;26405;51.850;-2.246;2022-12-10T06:21:40;12.65;;;5.20;;
40717;SDS011;26405;51.850;-2.246;2022-12-10T06:24:06;14.23;;;5.93;;
40717;SDS011;26405;51.850;-2.246;2022-12-10T06:26:31;13.15;;;5.35;;
40717;SDS011;26405;51.850;-2.246;2022-12-10T06:28:56;14.73;;;5.40;;
40717;SDS011;26405;51.850;-2.246;2022-12-10T06:31:22;13.52;;;5.63;;
40717;SDS011;26405;51.850;-2.246;2022-12-10T06:33:47;12.75;;;5.60;;
40717;SDS011;26405;51.850;-2.246;2022-12-10T06:36:13;11.35;;;5.20;;
40717;SDS011;26405;51.850;-2.246;2022-12-10T06:38:40;15.93;;;5.82;;
40717;SDS011;26405;51.850;-2.246;2022-12-10T06:41:06;15.07;;;5.95;;
40717;SDS011;26405;51.850;-2.246;2022-12-10T06:43:32;13.60;;;6.33;;
40717;SDS011;26405;51.850;-2.246;2022-12-10T06:45:57;15.48;;;6.03;;
40717;SDS011;26405;51.850;-2.246;2022-12-10T06:48:22;14.60;;;6.38;;
40717;SDS011;26405;51.850;-2.246;2022-12-10T06:50:47;14.77;;;6.32;;
40717;SDS011;26405;51.850;-2.246;2022-12-10T06:53:13;17.23;;;6.65;;
40717;SDS011;26405;51.850;-2.246;2022-12-10T06:55:38;14.23;;;6.28;;
40717;SDS011;26405;51.850;-2.246;2022-12-10T06:58:03;17.08;;;7.05;;
40717;SDS011;26405;51.850;-2.246;2022-12-10T07:00:29;19.02;;;7.10;;
40717;SDS011;26405;51.850;-2.246;2022-12-10T07:02:54;15.25;;;6.63;;
40717;SDS011;26405;51.850;-2.246;2022-12-10T07:05:19;13.65;;;5.80;;
40717;SDS011;26405;51.850;-2.246;2022-12-10T07:07:45;12.98;;;5.47;;
40717;SDS011;26405;51.850;-2.246;2022-12-10T07:10:10;15.32;;;5.93;;
40717;SDS011;26405;51.850;-2.246;2022-12-10T07:12:35;17.13;;;6.20;;
40717;SDS011;26405;51.850;-2.246;2022-12-10T07:15:00;17.10;;;6.03;;
40717;SDS011;26405;51.850;-2.246;2022-12-10T07:17:26;12.35;;;5.07;;
40717;SDS011;26405;51.850;-2.246;2022-12-10T07:19:51;14.35;;;5.38;;
40717;SDS011;26405;51.850;-2.246;2022-12-10T07:22:16;13.93;;;5.10;;
40717;SDS011;26405;51.850;-2.246;2022-12-10T07:24:42;12.95;;;5.00;;
40717;SDS011;26405;51.850;-2.246;2022-12-10T07:27:08;12.60;;;5.00;;
40717;SDS011;26405;51.850;-2.246;2022-12-10T07:29:33;12.00;;;5.03;;
40717;SDS011;26405;51.850;-2.246;2022-12-10T07:31:59;11.07;;;4.70;;
40717;SDS011;26405;51.850;-2.246;2022-12-10T07:34:24;12.10;;;4.70;;
40717;SDS011;26405;51.850;-2.246;2022-12-10T07:36:49;10.48;;;4.38;;
40717;SDS011;26405;51.850;-2.246;2022-12-10T07:39:15;9.35;;;3.90;;
40717;SDS011;26405;51.850;-2.246;2022-12-10T07:44:08;11.73;;;4.40;;
40717;SDS011;26405;51.850;-2.246;2022-12-10T07:46:35;14.30;;;4.35;;
40717;SDS011;26405;51.850;-2.246;2022-12-10T07:49:00;9.98;;;4.28;;
40717;SDS011;26405;51.850;-2.246;2022-12-10T07:51:26;11.80;;;4.30;;
40717;SDS011;26405;51.850;-2.246;2022-12-10T07:53:52;8.57;;;3.60;;
40717;SDS011;26405;51.850;-2.246;2022-12-10T07:56:18;10.45;;;3.97;;
40717;SDS011;26405;51.850;-2.246;2022-12-10T07:58:44;14.52;;;5.05;;
40717;SDS011;26405;51.850;-2.246;2022-12-10T08:01:10;10.18;;;4.20;;
40717;SDS011;26405;51.850;-2.246;2022-12-10T08:03:35;13.30;;;4.53;;
40717;SDS011;26405;51.850;-2.246;2022-12-10T08:06:02;8.85;;;3.50;;
40717;SDS011;26405;51.850;-2.246;2022-12-10T08:08:27;12.27;;;3.72;;
40717;SDS011;26405;51.850;-2.246;2022-12-10T08:10:53;9.48;;;3.60;;
40717;SDS011;26405;51.850;-2.246;2022-12-10T08:13:19;11.00;;;4.00;;
40717;SDS011;26405;51.850;-2.246;2022-12-10T08:15:44;11.13;;;3.85;;
40717;SDS011;26405;51.850;-2.246;2022-12-10T08:18:09;12.30;;;4.55;;
40717;SDS011;26405;51.850;-2.246;2022-12-10T08:20:35;11.48;;;4.10;;
40717;SDS011;26405;51.850;-2.246;2022-12-10T08:23:00;8.63;;;3.65;;
40717;SDS011;26405;51.850;-2.246;2022-12-10T08:25:26;12.30;;;4.35;;
40717;SDS011;26405;51.850;-2.246;2022-12-10T08:27:51;11.00;;;4.22;;
40717;SDS011;26405;51.850;-2.246;2022-12-10T08:33:19;18.50;;;7.55;;
40717;SDS011;26405;51.850;-2.246;2022-12-10T08:35:44;19.25;;;7.40;;
40717;SDS011;26405;51.850;-2.246;2022-12-10T08:38:09;24.63;;;9.38;;
40717;SDS011;26405;51.850;-2.246;2022-12-10T08:40:38;14.85;;;5.00;;
40717;SDS011;26405;51.850;-2.246;2022-12-10T08:43:03;9.73;;;3.97;;
40717;SDS011;26405;51.850;-2.246;2022-12-10T08:45:28;8.38;;;3.55;;
40717;SDS011;26405;51.850;-2.246;2022-12-10T08:47:53;9.60;;;3.47;;
40717;SDS011;26405;51.850;-2.246;2022-12-10T08:50:19;10.90;;;3.78;;
40717;SDS011;26405;51.850;-2.246;2022-12-10T08:52:44;9.52;;;3.80;;
40717;SDS011;26405;51.850;-2.246;2022-12-10T08:55:09;11.90;;;4.38;;
40717;SDS011;26405;51.850;-2.246;2022-12-10T08:57:34;19.80;;;6.32;;
40717;SDS011;26405;51.850;-2.246;2022-12-10T09:00:00;17.17;;;5.75;;
40717;SDS011;26405;51.850;-2.246;2022-12-10T09:02:25;15.85;;;5.10;;
40717;SDS011;26405;51.850;-2.246;2022-12-10T09:04:50;12.50;;;4.85;;
40717;SDS011;26405;51.850;-2.246;2022-12-10T09:07:16;14.80;;;5.45;;
40717;SDS011;26405;51.850;-2.246;2022-12-10T09:09:41;14.57;;;5.20;;
40717;SDS011;26405;51.850;-2.246;2022-12-10T09:12:06;14.20;;;4.68;;
40717;SDS011;26405;51.850;-2.246;2022-12-10T09:14:31;13.45;;;5.32;;
40717;SDS011;26405;51.850;-2.246;2022-12-10T09:16:57;13.38;;;5.10;;
40717;SDS011;26405;51.850;-2.246;2022-12-10T09:19:22;11.07;;;4.25;;
40717;SDS011;26405;51.850;-2.246;2022-12-10T09:21:47;11.98;;;4.30;;
40717;SDS011;26405;51.850;-2.246;2022-12-10T09:24:12;9.52;;;3.90;;
40717;SDS011;26405;51.850;-2.246;2022-12-10T09:26:38;8.63;;;3.20;;
40717;SDS011;26405;51.850;-2.246;2022-12-10T09:29:03;10.20;;;3.90;;
40717;SDS011;26405;51.850;-2.246;2022-12-10T09:31:29;10.80;;;3.97;;
40717;SDS011;26405;51.850;-2.246;2022-12-10T09:33:55;7.80;;;3.45;;
40717;SDS011;26405;51.850;-2.246;2022-12-10T09:36:20;9.52;;;3.45;;
40717;SDS011;26405;51.850;-2.246;2022-12-10T09:38:46;10.20;;;3.60;;
40717;SDS011;26405;51.850;-2.246;2022-12-10T09:46:16;8.68;;;3.50;;
40717;SDS011;26405;51.850;-2.246;2022-12-10T09:48:48;8.02;;;3.65;;
40717;SDS011;26405;51.850;-2.246;2022-12-10T09:53:43;7.50;;;3.50;;
40717;SDS011;26405;51.850;-2.246;2022-12-10T09:56:22;7.10;;;3.25;;
40717;SDS011;26405;51.850;-2.246;2022-12-10T09:58:48;10.68;;;3.70;;
40717;SDS011;26405;51.850;-2.246;2022-12-10T10:01:14;8.25;;;3.63;;
40717;SDS011;26405;51.850;-2.246;2022-12-10T10:03:41;15.43;;;4.43;;
40717;SDS011;26405;51.850;-2.246;2022-12-10T10:06:08;9.63;;;3.60;;
40717;SDS011;26405;51.850;-2.246;2022-12-10T10:08:54;10.27;;;3.22;;
40717;SDS011;26405;51.850;-2.246;2022-12-10T10:11:22;7.10;;;3.00;;
40717;SDS011;26405;51.850;-2.246;2022-12-10T10:18:43;9.55;;;3.00;;
40717;SDS011;26405;51.850;-2.246;2022-12-10T10:21:55;8.32;;;3.15;;
40717;SDS011;26405;51.850;-2.246;2022-12-10T10:23:55;8.40;;;3.42;;
40717;SDS011;26405;51.850;-2.246;2022-12-10T10:26:22;7.88;;;3.30;;
40717;SDS011;26405;51.850;-2.246;2022-12-10T10:28:48;9.65;;;3.80;;
40717;SDS011;26405;51.850;-2.246;2022-12-10T10:31:21;6.47;;;2.75;;
40717;SDS011;26405;51.850;-2.246;2022-12-10T10:33:51;9.20;;;3.50;;
40717;SDS011;26405;51.850;-2.246;2022-12-10T10:36:22;10.48;;;3.50;;
40717;SDS011;26405;51.850;-2.246;2022-12-10T10:38:47;9.65;;;3.58;;
40717;SDS011;26405;51.850;-2.246;2022-12-10T10:41:13;8.75;;;3.58;;
40717;SDS011;26405;51.850;-2.246;2022-12-10T10:43:39;11.40;;;3.83;;
40717;SDS011;26405;51.850;-2.246;2022-12-10T10:46:16;7.25;;;3.50;;
40717;SDS011;26405;51.850;-2.246;2022-12-10T10:48:42;7.70;;;3.28;;
40717;SDS011;26405;51.850;-2.246;2022-12-10T10:51:29;9.15;;;3.30;;
40717;SDS011;26405;51.850;-2.246;2022-12-10T10:53:54;8.57;;;3.08;;
40717;SDS011;26405;51.850;-2.246;2022-12-10T11:01:48;6.78;;;3.05;;
40717;SDS011;26405;51.850;-2.246;2022-12-10T11:04:14;8.25;;;3.22;;
40717;SDS011;26405;51.850;-2.246;2022-12-10T11:06:40;9.87;;;3.30;;
40717;SDS011;26405;51.850;-2.246;2022-12-10T11:09:06;7.72;;;3.15;;
40717;SDS011;26405;51.850;-2.246;2022-12-10T11:11:35;9.52;;;3.35;;
40717;SDS011;26405;51.850;-2.246;2022-12-10T11:16:45;7.18;;;3.35;;
40717;SDS011;26405;51.850;-2.246;2022-12-10T11:19:18;10.13;;;4.28;;
40717;SDS011;26405;51.850;-2.246;2022-12-10T11:21:44;8.60;;;3.70;;
40717;SDS011;26405;51.850;-2.246;2022-12-10T11:24:10;10.57;;;3.40;;
40717;SDS011;26405;51.850;-2.246;2022-12-10T11:37:01;8.77;;;3.30;;
40717;SDS011;26405;51.850;-2.246;2022-12-10T11:45:09;6.10;;;2.30;;
40717;SDS011;26405;51.850;-2.246;2022-12-10T11:47:54;6.78;;;2.85;;
40717;SDS011;26405;51.850;-2.246;2022-12-10T11:50:27;7.70;;;2.80;;
40717;SDS011;26405;51.850;-2.246;2022-12-10T11:53:43;6.78;;;2.90;;
40717;SDS011;26405;51.850;-2.246;2022-12-10T12:01:13;8.32;;;3.20;;
40717;SDS011;26405;51.850;-2.246;2022-12-10T12:06:40;9.10;;;3.17;;
40717;SDS011;26405;51.850;-2.246;2022-12-10T12:09:15;10.20;;;3.40;;
40717;SDS011;26405;51.850;-2.246;2022-12-10T12:16:50;9.02;;;3.10;;
40717;SDS011;26405;51.850;-2.246;2022-12-10T12:19:18;9.80;;;3.40;;
40717;SDS011;26405;51.850;-2.246;2022-12-10T12:21:44;8.32;;;3.20;;
40717;SDS011;26405;51.850;-2.246;2022-12-10T12:24:19;7.00;;;3.00;;
40717;SDS011;26405;51.850;-2.246;2022-12-10T12:26:47;6.40;;;2.95;;
40717;SDS011;26405;51.850;-2.246;2022-12-10T12:31:39;5.22;;;2.80;;
40717;SDS011;26405;51.850;-2.246;2022-12-10T12:34:18;6.20;;;2.58;;
40717;SDS011;26405;51.850;-2.246;2022-12-10T12:36:45;7.53;;;2.75;;
40717;SDS011;26405;51.850;-2.246;2022-12-10T12:44:22;4.85;;;2.90;;
40717;SDS011;26405;51.850;-2.246;2022-12-10T12:46:54;8.40;;;3.67;;
40717;SDS011;26405;51.850;-2.246;2022-12-10T12:49:22;9.52;;;3.55;;
40717;SDS011;26405;51.850;-2.246;2022-12-10T12:51:54;8.90;;;3.30;;
40717;SDS011;26405;51.850;-2.246;2022-12-10T12:54:21;11.05;;;3.20;;
40717;SDS011;26405;51.850;-2.246;2022-12-10T12:56:57;5.03;;;2.70;;
40717;SDS011;26405;51.850;-2.246;2022-12-10T12:59:33;6.25;;;2.95;;
40717;SDS011;26405;51.850;-2.246;2022-12-10T13:02:20;9.15;;;3.20;;
40717;SDS011;26405;51.850;-2.246;2022-12-10T13:04:47;5.97;;;2.72;;
40717;SDS011;26405;51.850;-2.246;2022-12-10T13:09:45;7.80;;;2.70;;
40717;SDS011;26405;51.850;-2.246;2022-12-10T13:12:24;7.07;;;2.60;;
40717;SDS011;26405;51.850;-2.246;2022-12-10T13:14:56;6.88;;;3.08;;
40717;SDS011;26405;51.850;-2.246;2022-12-10T13:17:30;7.95;;;2.92;;
40717;SDS011;26405;51.850;-2.246;2022-12-10T13:22:41;6.45;;;2.78;;
40717;SDS011;26405;51.850;-2.246;2022-12-10T13:27:38;8.25;;;2.80;;
40717;SDS011;26405;51.850;-2.246;2022-12-10T13:30:05;7.20;;;2.92;;
40717;SDS011;26405;51.850;-2.246;2022-12-10T13:32:51;8.35;;;2.50;;
40717;SDS011;26405;51.850;-2.246;2022-12-10T13:35:22;11.35;;;3.20;;
40717;SDS011;26405;51.850;-2.246;2022-12-10T13:48:56;9.70;;;3.63;;
40717;SDS011;26405;51.850;-2.246;2022-12-10T13:59:32;8.35;;;2.90;;
40717;SDS011;26405;51.850;-2.246;2022-12-10T14:06:43;7.18;;;3.33;;
40717;SDS011;26405;51.850;-2.246;2022-12-10T14:09:11;7.50;;;2.80;;
40717;SDS011;26405;51.850;-2.246;2022-12-10T14:11:40;8.75;;;3.38;;
40717;SDS011;26405;51.850;-2.246;2022-12-10T14:14:11;8.10;;;2.72;;
40717;SDS011;26405;51.850;-2.246;2022-12-10T14:16:38;8.82;;;2.70;;
40717;SDS011;26405;51.850;-2.246;2022-12-10T14:19:06;6.20;;;2.63;;
40717;SDS011;26405;51.850;-2.246;2022-12-10T14:21:34;6.15;;;2.70;;
40717;SDS011;26405;51.850;-2.246;2022-12-10T14:24:00;8.80;;;2.90;;
40717;SDS011;26405;51.850;-2.246;2022-12-10T14:26:30;7.70;;;2.75;;
40717;SDS011;26405;51.850;-2.246;2022-12-10T14:31:24;6.10;;;2.60;;
40717;SDS011;26405;51.850;-2.246;2022-12-10T14:33:50;5.20;;;2.30;;
40717;SDS011;26405;51.850;-2.246;2022-12-10T14:36:17;5.57;;;2.55;;
40717;SDS011;26405;51.850;-2.246;2022-12-10T14:38:45;7.38;;;3.10;;
40717;SDS011;26405;51.850;-2.246;2022-12-10T14:41:11;10.10;;;3.27;;
40717;SDS011;26405;51.850;-2.246;2022-12-10T14:43:38;5.40;;;2.47;;
40717;SDS011;26405;51.850;-2.246;2022-12-10T14:46:04;6.40;;;3.03;;
40717;SDS011;26405;51.850;-2.246;2022-12-10T14:48:30;8.80;;;3.47;;
40717;SDS011;26405;51.850;-2.246;2022-12-10T14:50:56;6.10;;;2.67;;
40717;SDS011;26405;51.850;-2.246;2022-12-10T14:53:25;7.07;;;2.92;;
40717;SDS011;26405;51.850;-2.246;2022-12-10T14:55:53;6.10;;;2.50;;
40717;SDS011;26405;51.850;-2.246;2022-12-10T14:58:27;4.60;;;2.47;;
40717;SDS011;26405;51.850;-2.246;2022-12-10T15:00:53;6.10;;;2.30;;
40717;SDS011;26405;51.850;-2.246;2022-12-10T15:03:23;6.10;;;2.58;;
40717;SDS011;26405;51.850;-2.246;2022-12-10T15:05:56;6.50;;;2.80;;
40717;SDS011;26405;51.850;-2.246;2022-12-10T15:08:21;8.27;;;2.90;;
40717;SDS011;26405;51.850;-2.246;2022-12-10T15:10:52;8.30;;;3.25;;
40717;SDS011;26405;51.850;-2.246;2022-12-10T15:15:57;10.13;;;3.75;;
40717;SDS011;26405;51.850;-2.246;2022-12-10T15:18:33;15.40;;;4.75;;
40717;SDS011;26405;51.850;-2.246;2022-12-10T15:21:09;14.50;;;5.30;;
40717;SDS011;26405;51.850;-2.246;2022-12-10T15:23:35;8.90;;;4.10;;
40717;SDS011;26405;51.850;-2.246;2022-12-10T15:26:04;11.02;;;4.25;;
40717;SDS011;26405;51.850;-2.246;2022-12-10T15:28:35;11.55;;;4.10;;
40717;SDS011;26405;51.850;-2.246;2022-12-10T15:31:12;10.98;;;3.97;;
40717;SDS011;26405;51.850;-2.246;2022-12-10T15:33:47;15.00;;;3.75;;
40717;SDS011;26405;51.850;-2.246;2022-12-10T15:36:56;7.97;;;3.65;;
40717;SDS011;26405;51.850;-2.246;2022-12-10T15:39:02;12.13;;;4.22;;
40717;SDS011;26405;51.850;-2.246;2022-12-10T15:41:33;9.18;;;3.78;;
40717;SDS011;26405;51.850;-2.246;2022-12-10T15:44:04;10.18;;;3.70;;
40717;SDS011;26405;51.850;-2.246;2022-12-10T15:46:30;13.30;;;4.47;;
40717;SDS011;26405;51.850;-2.246;2022-12-10T15:48:55;12.48;;;5.25;;
40717;SDS011;26405;51.850;-2.246;2022-12-10T15:51:20;10.70;;;4.32;;
40717;SDS011;26405;51.850;-2.246;2022-12-10T15:53:46;11.82;;;4.38;;
40717;SDS011;26405;51.850;-2.246;2022-12-10T15:56:11;11.30;;;4.32;;
40717;SDS011;26405;51.850;-2.246;2022-12-10T15:58:36;7.88;;;3.65;;
40717;SDS011;26405;51.850;-2.246;2022-12-10T16:01:02;10.73;;;4.40;;
40717;SDS011;26405;51.850;-2.246;2022-12-10T16:03:27;13.63;;;5.20;;
40717;SDS011;26405;51.850;-2.246;2022-12-10T16:05:53;10.82;;;4.95;;
40717;SDS011;26405;51.850;-2.246;2022-12-10T16:08:19;13.20;;;4.63;;
40717;SDS011;26405;51.850;-2.246;2022-12-10T16:10:45;11.88;;;4.38;;
40717;SDS011;26405;51.850;-2.246;2022-12-10T16:13:13;11.32;;;3.88;;
40717;SDS011;26405;51.850;-2.246;2022-12-10T16:15:44;14.00;;;3.70;;
40717;SDS011;26405;51.850;-2.246;2022-12-10T16:18:10;11.32;;;3.65;;
40717;SDS011;26405;51.850;-2.246;2022-12-10T16:20:36;10.00;;;3.90;;
40717;SDS011;26405;51.850;-2.246;2022-12-10T16:23:01;14.40;;;4.63;;